Andyville, Minnesota
Current Conditions -  °F | °C
As of 4:16 PM on Monday 26 Jan 2015 (Local Time) from KAUM Reporting Station
Clear Clear  
Wind Chill: 31°   Ceiling: Unl
Heat Index: 39°   Visibility: 10mi
Dew Point: 34°   Wind: 14mph
Humidity: 81%   Direction: 310°NW
Pressure: 29.79"   Gusts: 18mph
Location:  43.7173°N, 92.9889°W
Report Text: KAUM 262216Z AUTO 31012G16KT 10SM CLR 04/01 A2979 RMK AO2
Loading
Personal Weather Stations






























Interactive Weather Map New forecast layout! Learn more

10-Day Weather Forecast

Advertisements
Track Severe Weather on mobile